Terminal Aerodrome Forecast
Issued by NWS

Home | Current Version | Previous Version | Text Only | Print | Product List | Glossary On
Versions: 1 2 3 4 5 6 7 8 9 10 11 12 13 14 15 16
000
FTUS45 KFGZ 272300
TAFGCN
TAF
KGCN 272320Z 2800/2824 24008KT P6SM SCT035 OVC060
      TEMPO 2800/2804 4SM -SHSN BR BKN035 OVC040
     FM280400 24008KT 4SM -SHSN SCT020 OVC030
     FM280800 VRB06KT 2SM -SHSN SCT015 OVC025
     FM281700 22015G30KT 2SM -SHSN SCT020 OVC030
     FM281900 22020G35KT 2SM -SHSN SCT020 OVC030=

USA.gov is the U.S. government's official web portal to all federal, state and local government web resources and services.